Time;durP1;ratioP1;P1;durP2;ratioP2;P2;SDS_P1;SDS_P2;PMS_P1;PMS_P2;Temp;Humidity;BMP_temperature;BMP_pressure;BME280_temperature;BME280_humidity;BME280_pressure;Samples;Min_cycle;Max_cycle;Signal;HPM_P1;HPM_P2
2022/11/17 00:01:56;;;;;;;26.35;18.40;;;7.70;99.90;;;;;;5015268;28;20040;-57
2022/11/17 00:04:24;;;;;;;30.48;19.20;;;7.70;99.90;;;;;;5016371;28;20703;-58
2022/11/17 00:06:50;;;;;;;34.30;18.80;;;7.70;99.90;;;;;;5017080;28;20115;-58
2022/11/17 00:09:18;;;;;;;24.77;15.73;;;7.80;99.90;;;;;;5018268;28;20581;-57
2022/11/17 00:14:35;;;;;;;25.15;16.25;;;7.60;99.90;;;;;;5015417;28;20049;-57
2022/11/17 00:17:07;;;;;;;28.37;17.23;;;7.60;99.90;;;;;;5017069;28;20049;-58
2022/11/17 00:22:17;;;;;;;25.52;16.02;;;7.80;99.90;;;;;;5013440;28;20057;-57
2022/11/17 00:24:43;;;;;;;26.92;16.05;;;7.60;99.90;;;;;;5014998;28;20033;-57
2022/11/17 00:27:09;;;;;;;22.52;15.43;;;7.80;99.90;;;;;;5018558;28;20064;-57
2022/11/17 00:29:34;;;;;;;22.83;15.48;;;7.70;99.90;;;;;;5013003;28;20067;-58
2022/11/17 00:34:44;;;;;;;22.67;13.40;;;7.80;99.90;;;;;;5019764;28;20712;-58
2022/11/17 00:37:11;;;;;;;24.80;15.35;;;7.80;99.90;;;;;;5018588;28;20041;-57
2022/11/17 00:39:37;;;;;;;24.75;15.73;;;7.80;99.90;;;;;;5015914;28;20103;-57
2022/11/17 00:42:03;;;;;;;19.33;13.98;;;7.70;99.90;;;;;;5046779;28;20576;-57
2022/11/17 00:44:29;;;;;;;18.67;11.52;;;7.70;99.90;;;;;;5020257;28;20054;-57
2022/11/17 00:46:55;;;;;;;19.05;13.05;;;7.70;99.90;;;;;;5016330;28;20047;-57
2022/11/17 00:49:24;;;;;;;18.73;14.05;;;7.80;99.90;;;;;;5014156;28;20045;-57
2022/11/17 00:51:54;;;;;;;19.38;13.75;;;7.70;99.90;;;;;;5014614;28;20069;-57
2022/11/17 00:54:20;;;;;;;22.92;14.68;;;7.70;99.90;;;;;;5015326;28;20041;-57
2022/11/17 00:56:47;;;;;;;18.40;14.15;;;7.80;99.90;;;;;;5012705;28;20048;-58
2022/11/17 00:59:13;;;;;;;18.58;13.50;;;7.90;99.90;;;;;;5015951;28;20060;-58
2022/11/17 01:01:39;;;;;;;18.77;13.50;;;7.80;99.90;;;;;;5016276;28;20076;-57
2022/11/17 01:04:05;;;;;;;16.25;11.90;;;7.70;99.90;;;;;;5013835;28;20033;-57
2022/11/17 01:06:43;;;;;;;17.02;13.40;;;9.80;99.90;;;;;;5053136;28;20452;-57
2022/11/17 01:09:20;;;;;;;21.35;13.52;;;7.90;99.90;;;;;;5014743;28;20685;-57
2022/11/17 01:11:47;;;;;;;17.25;11.07;;;7.90;99.90;;;;;;5017775;28;20067;-57
2022/11/17 01:14:22;;;;;;;14.57;9.55;;;7.70;99.90;;;;;;5014778;28;20419;-57
2022/11/17 01:16:48;;;;;;;19.60;12.88;;;7.80;99.90;;;;;;5015281;28;20102;-57
2022/11/17 01:19:15;;;;;;;15.77;11.95;;;7.80;99.90;;;;;;5018411;28;20061;-57
2022/11/17 01:21:41;;;;;;;17.55;11.85;;;7.80;99.90;;;;;;5016559;28;20072;-57
2022/11/17 01:24:09;;;;;;;17.58;12.68;;;8.00;99.90;;;;;;5017341;28;20040;-58
2022/11/17 01:26:37;;;;;;;19.20;12.45;;;7.80;99.90;;;;;;5013159;28;20033;-58
2022/11/17 01:29:04;;;;;;;14.68;11.23;;;8.00;99.90;;;;;;5014905;28;20041;-57
2022/11/17 01:31:33;;;;;;;15.32;11.27;;;7.90;99.90;;;;;;5016740;28;20041;-57
2022/11/17 01:33:59;;;;;;;16.52;11.35;;;7.90;99.90;;;;;;5014959;28;20124;-57
2022/11/17 01:37:17;;;;;;;17.35;12.25;;;7.90;99.90;;;;;;5014514;28;20056;-57
2022/11/17 01:39:26;;;;;;;16.83;11.27;;;8.00;99.90;;;;;;5017656;28;20046;-56
2022/11/17 01:41:53;;;;;;;17.10;11.65;;;7.60;99.90;;;;;;5017341;28;20734;-57
2022/11/17 01:44:59;;;;;;;19.08;12.20;;;7.70;99.90;;;;;;5018643;28;20057;-57
2022/11/17 01:47:43;;;;;;;16.13;11.65;;;7.80;99.90;;;;;;5005478;28;20053;-57
2022/11/17 01:50:38;;;;;;;18.80;11.10;;;7.80;99.90;;;;;;5020528;28;20145;-58
2022/11/17 01:53:12;;;;;;;21.40;12.20;;;7.90;99.90;;;;;;5022116;28;20164;-57
2022/11/17 01:55:44;;;;;;;16.60;11.57;;;8.00;99.90;;;;;;5019205;28;20095;-57
2022/11/17 01:58:18;;;;;;;14.02;10.95;;;7.90;99.90;;;;;;5020457;28;20516;-57
2022/11/17 02:00:45;;;;;;;16.65;12.27;;;7.80;99.90;;;;;;5018293;28;20669;-57
2022/11/17 02:03:11;;;;;;;16.75;11.90;;;7.90;99.90;;;;;;5018444;28;20484;-57
2022/11/17 02:05:58;;;;;;;14.80;11.52;;;7.80;99.90;;;;;;5015345;28;20080;-57
2022/11/17 02:08:27;;;;;;;13.60;10.10;;;7.70;99.90;;;;;;5018627;28;20950;-57
2022/11/17 02:10:53;;;;;;;17.00;12.73;;;7.80;99.90;;;;;;5018248;28;20124;-58
2022/11/17 02:13:21;;;;;;;17.48;12.18;;;7.80;99.90;;;;;;5016977;28;20099;-57
2022/11/17 02:15:46;;;;;;;19.05;12.38;;;7.80;99.90;;;;;;5015822;28;20045;-57
2022/11/17 02:18:14;;;;;;;16.58;11.93;;;7.60;99.90;;;;;;5017996;28;20053;-57
2022/11/17 02:20:48;;;;;;;17.80;11.63;;;7.60;99.90;;;;;;5018511;28;20041;-57
2022/11/17 02:23:32;;;;;;;17.05;11.82;;;7.80;99.90;;;;;;5019722;28;20042;-58
2022/11/17 02:26:20;;;;;;;18.65;13.23;;;7.70;99.90;;;;;;5017987;28;20040;-57
2022/11/17 02:28:54;;;;;;;15.63;10.02;;;7.50;99.90;;;;;;5019005;28;20720;-57
2022/11/17 02:31:36;;;;;;;17.45;12.07;;;7.50;99.90;;;;;;5023237;28;20045;-57
2022/11/17 02:34:14;;;;;;;16.13;12.90;;;7.50;99.90;;;;;;5021852;28;20099;-57
2022/11/17 02:37:03;;;;;;;16.58;12.88;;;7.50;99.90;;;;;;5018671;28;20068;-56
2022/11/17 02:39:55;;;;;;;19.38;13.85;;;7.50;99.90;;;;;;5018297;28;20072;-57
2022/11/17 02:45:35;;;;;;;18.15;13.60;;;7.30;99.90;;;;;;5016814;28;20053;-55
2022/11/17 02:48:09;;;;;;;16.85;13.00;;;7.40;99.90;;;;;;5017170;28;20033;-56
2022/11/17 02:50:36;;;;;;;22.58;15.77;;;7.30;99.90;;;;;;5016976;28;20053;-56
2022/11/17 02:53:03;;;;;;;22.05;16.02;;;7.20;99.90;;;;;;5018382;28;20041;-56
2022/11/17 02:55:32;;;;;;;22.52;16.45;;;7.40;99.90;;;;;;5017566;28;20176;-55
2022/11/17 02:57:57;;;;;;;23.88;15.77;;;7.20;99.90;;;;;;5015430;28;20045;-56
2022/11/17 03:00:23;;;;;;;24.60;16.98;;;;;;;;;;5017668;28;20037;-56
2022/11/17 03:03:08;;;;;;;19.25;14.82;;;7.10;99.90;;;;;;5018660;28;20536;-55
2022/11/17 03:06:01;;;;;;;20.70;16.95;;;7.10;99.90;;;;;;5015665;28;20437;-56
2022/11/17 03:08:40;;;;;;;25.50;17.23;;;7.20;99.90;;;;;;5016191;28;20398;-56
2022/11/17 03:11:07;;;;;;;22.90;17.98;;;7.30;99.90;;;;;;5016004;28;20037;-57
2022/11/17 03:13:52;;;;;;;28.52;18.40;;;7.20;99.90;;;;;;5017395;28;20128;-56
2022/11/17 03:16:49;;;;;;;24.52;17.98;;;7.20;99.90;;;;;;5017369;28;20049;-56
2022/11/17 03:19:17;;;;;;;23.67;16.38;;;7.20;99.90;;;;;;5014391;28;20041;-56
2022/11/17 03:22:01;;;;;;;20.60;16.73;;;7.10;99.90;;;;;;5017484;28;20080;-56
2022/11/17 03:24:40;;;;;;;27.10;18.63;;;7.10;99.90;;;;;;5017406;28;20406;-56
2022/11/17 03:27:26;;;;;;;18.88;14.23;;;7.00;99.90;;;;;;5049600;28;20588;-55
2022/11/17 03:29:58;;;;;;;23.20;16.23;;;6.90;99.90;;;;;;5016181;28;20215;-54
2022/11/17 03:32:24;;;;;;;;;;;7.10;99.90;;;;;;5017985;28;20091;-55
2022/11/17 03:34:57;;;;;;;22.48;16.17;;;7.00;99.90;;;;;;5016984;28;19979;-56
2022/11/17 03:37:27;;;;;;;24.38;18.63;;;6.90;99.90;;;;;;5022288;28;20044;-56
2022/11/17 03:39:57;;;;;;;24.38;19.02;;;6.90;99.90;;;;;;5018059;28;20045;-56
2022/11/17 03:42:27;;;;;;;26.23;18.73;;;6.90;99.90;;;;;;5017445;28;20057;-54
2022/11/17 03:45:21;;;;;;;21.63;17.00;;;7.00;99.90;;;;;;5015922;28;20056;-56
2022/11/17 03:47:52;;;;;;;26.50;17.70;;;7.00;99.90;;;;;;5018700;28;20122;-56
2022/11/17 03:50:24;;;;;;;26.27;19.27;;;7.00;99.90;;;;;;5017806;28;20973;-56
2022/11/17 03:52:51;;;;;;;23.10;15.35;;;7.00;99.90;;;;;;5017248;28;20068;-56
2022/11/17 03:55:17;;;;;;;21.73;17.63;;;;;;;;;;5016588;28;20152;-56
2022/11/17 03:57:53;;;;;;;21.05;17.50;;;7.10;99.90;;;;;;5017167;28;20108;-56
2022/11/17 04:00:19;;;;;;;26.10;19.33;;;6.90;99.90;;;;;;5014146;28;20296;-57
2022/11/17 04:02:47;;;;;;;20.83;17.58;;;6.90;99.90;;;;;;5019136;28;20064;-57
2022/11/17 04:05:16;;;;;;;23.60;18.83;;;6.80;99.90;;;;;;5015846;28;20099;-57
2022/11/17 04:07:46;;;;;;;18.20;13.48;;;6.90;99.90;;;;;;5016307;28;20140;-57
2022/11/17 04:10:20;;;;;;;18.45;13.90;;;7.00;99.90;;;;;;5014267;28;20055;-57
2022/11/17 04:18:18;;;;;;;21.88;16.73;;;6.80;99.90;;;;;;5013582;28;20501;-56
2022/11/17 04:20:44;;;;;;;21.73;17.05;;;6.80;99.90;;;;;;5017805;28;20069;-56
2022/11/17 04:23:14;;;;;;;18.67;15.43;;;6.70;99.90;;;;;;5013954;28;20065;-56
2022/11/17 04:28:38;;;;;;;18.20;14.80;;;6.90;99.90;;;;;;5013043;28;20057;-56
2022/11/17 04:31:12;;;;;;;19.13;16.27;;;6.80;99.90;;;;;;5018499;28;20414;-56
2022/11/17 04:33:41;;;;;;;19.27;15.07;;;6.90;99.90;;;;;;5015939;28;20034;-57
2022/11/17 04:36:07;;;;;;;16.83;14.70;;;6.80;99.90;;;;;;5015906;28;20039;-56
2022/11/17 04:38:33;;;;;;;23.05;16.15;;;;;;;;;;5016381;28;20437;-55
2022/11/17 04:43:45;;;;;;;18.50;13.38;;;;;;;;;;5015013;28;20053;-54
2022/11/17 04:46:11;;;;;;;20.10;16.33;;;;;;;;;;5015848;28;20044;-55
2022/11/17 04:48:38;;;;;;;19.92;15.75;;;;;;;;;;5017226;28;20409;-56
2022/11/17 04:51:03;;;;;;;17.70;14.15;;;6.60;99.90;;;;;;5012916;28;20037;-55
2022/11/17 04:53:29;;;;;;;22.42;16.70;;;6.60;99.90;;;;;;5015814;28;20033;-55
2022/11/17 04:55:59;;;;;;;21.13;15.52;;;6.70;99.90;;;;;;5015753;28;20182;-51
2022/11/17 04:58:25;;;;;;;19.23;15.80;;;;;;;;;;5018383;28;20430;-54
2022/11/17 05:00:51;;;;;;;18.75;14.95;;;;;;;;;;5017760;28;20043;-51
2022/11/17 05:03:17;;;;;;;18.63;14.43;;;6.60;99.90;;;;;;5014533;28;20476;-56
2022/11/17 05:05:47;;;;;;;17.17;12.10;;;6.50;99.90;;;;;;5015143;28;20038;-56
2022/11/17 05:08:14;;;;;;;20.15;16.02;;;;;;;;;;5017717;28;20040;-56
2022/11/17 05:13:25;;;;;;;20.45;15.05;;;6.50;99.90;;;;;;5011962;28;20589;-57
2022/11/17 05:18:41;;;;;;;20.65;14.38;;;6.50;99.90;;;;;;5018001;28;20605;-57
2022/11/17 05:21:09;;;;;;;21.27;13.88;;;6.40;99.90;;;;;;5017127;28;20055;-57
2022/11/17 05:23:53;;;;;;;20.30;14.75;;;;;;;;;;5015306;28;20490;-58
2022/11/17 05:26:24;;;;;;;18.83;14.80;;;6.20;99.90;;;;;;5012973;28;20067;-58
2022/11/17 05:28:50;;;;;;;21.63;15.23;;;6.50;99.90;;;;;;5014391;28;20421;-57
2022/11/17 05:31:16;;;;;;;20.35;15.88;;;6.40;99.90;;;;;;5014661;28;20054;-58
2022/11/17 05:33:43;;;;;;;19.58;15.23;;;;;;;;;;5014980;28;20037;-58
2022/11/17 05:36:10;;;;;;;16.00;12.25;;;6.40;99.90;;;;;;5015222;28;20052;-58
2022/11/17 05:38:36;;;;;;;18.73;14.82;;;;;;;;;;5013044;28;20053;-58
2022/11/17 05:41:02;;;;;;;19.67;14.13;;;;;;;;;;5013728;28;20472;-57
2022/11/17 05:43:28;;;;;;;17.13;14.75;;;6.20;99.90;;;;;;5017660;28;20498;-58
2022/11/17 05:45:54;;;;;;;15.98;12.30;;;;;;;;;;5014901;28;20049;-58
2022/11/17 05:48:20;;;;;;;20.15;13.82;;;;;;;;;;5015065;28;20119;-58
2022/11/17 05:50:46;;;;;;;18.67;13.93;;;;;;;;;;5014551;28;20583;-58
2022/11/17 05:53:12;;;;;;;16.02;12.90;;;6.40;99.90;;;;;;5013411;28;20049;-57
2022/11/17 05:55:38;;;;;;;12.63;10.40;;;;;;;;;;5015729;28;20033;-58
2022/11/17 05:58:17;;;;;;;15.18;11.52;;;6.20;99.90;;;;;;5011389;28;20068;-57
2022/11/17 06:00:43;;;;;;;16.98;12.45;;;;;;;;;;5015364;28;20041;-57
2022/11/17 06:03:19;;;;;;;14.48;11.95;;;6.20;99.90;;;;;;5013512;28;20072;-57
2022/11/17 06:05:46;;;;;;;13.82;10.85;;;6.20;99.90;;;;;;5013876;28;20043;-58
2022/11/17 06:08:11;;;;;;;14.15;12.07;;;6.20;99.90;;;;;;5016745;28;20052;-58
2022/11/17 06:10:38;;;;;;;13.73;10.48;;;;;;;;;;5010753;28;20034;-57
2022/11/17 06:13:04;;;;;;;14.43;11.43;;;;;;;;;;5013789;28;20048;-58
2022/11/17 06:15:30;;;;;;;12.68;11.23;;;;;;;;;;5016080;28;20286;-58
2022/11/17 06:18:02;;;;;;;12.07;8.93;;;6.10;99.90;;;;;;5013181;28;20372;-58
2022/11/17 06:20:31;;;;;;;11.60;9.88;;;6.10;99.90;;;;;;5014466;28;21256;-58
2022/11/17 06:23:00;;;;;;;13.55;10.20;;;6.10;99.90;;;;;;5014622;28;20202;-58
2022/11/17 06:25:27;;;;;;;9.13;7.20;;;6.10;99.90;;;;;;5019292;28;20041;-58
2022/11/17 06:27:54;;;;;;;10.68;9.27;;;6.90;99.90;;;;;;5018961;28;20048;-57
2022/11/17 06:30:20;;;;;;;12.23;8.88;;;;;;;;;;5022041;28;20049;-58
2022/11/17 06:32:46;;;;;;;11.52;8.57;;;6.20;99.90;;;;;;5020236;28;20406;-58
2022/11/17 06:35:15;;;;;;;10.88;9.00;;;6.30;99.90;;;;;;5020472;28;20049;-58
2022/11/17 06:37:41;;;;;;;9.77;8.45;;;;;;;;;;5019969;28;21239;-58
2022/11/17 06:40:08;;;;;;;11.38;8.10;;;6.20;99.90;;;;;;5017935;28;20111;-57
2022/11/17 06:45:19;;;;;;;10.68;9.02;;;;;;;;;;5018501;28;20303;-58
2022/11/17 06:47:45;;;;;;;11.95;8.25;;;;;;;;;;5015685;28;20042;-57
2022/11/17 06:50:11;;;;;;;10.77;8.55;;;;;;;;;;5018831;28;20127;-58
2022/11/17 06:52:38;;;;;;;9.23;7.40;;;;;;;;;;5018081;28;20087;-58
2022/11/17 06:55:04;;;;;;;10.02;7.55;;;;;;;;;;5016557;28;20046;-58
2022/11/17 06:57:30;;;;;;;9.43;6.97;;;;;;;;;;5016343;28;20136;-57
2022/11/17 06:59:56;;;;;;;12.15;8.68;;;;;;;;;;5015828;28;20698;-58
2022/11/17 07:02:22;;;;;;;8.25;5.88;;;;;;;;;;5018430;28;20469;-58
2022/11/17 07:04:48;;;;;;;11.43;7.90;;;;;;;;;;5016546;28;20038;-58
2022/11/17 07:07:15;;;;;;;9.60;7.38;;;;;;;;;;5016148;28;20103;-58
2022/11/17 07:09:41;;;;;;;11.10;7.78;;;;;;;;;;5020614;28;20133;-58
2022/11/17 07:12:07;;;;;;;10.25;8.75;;;;;;;;;;5018953;28;20038;-57
2022/11/17 07:14:33;;;;;;;9.93;8.45;;;6.20;99.90;;;;;;5015894;28;20352;-57
2022/11/17 07:16:59;;;;;;;10.02;8.38;;;;;;;;;;5017034;28;20044;-58
2022/11/17 07:19:25;;;;;;;10.70;8.55;;;;;;;;;;5019169;28;20135;-58
2022/11/17 07:21:51;;;;;;;8.73;6.72;;;;;;;;;;5018117;28;20051;-57
2022/11/17 07:24:17;;;;;;;8.40;7.03;;;;;;;;;;5049380;28;20041;-58
2022/11/17 07:26:43;;;;;;;9.88;8.20;;;;;;;;;;5017628;28;20045;-58
2022/11/17 07:29:09;;;;;;;11.75;8.90;;;;;;;;;;5018758;28;20224;-58
2022/11/17 07:31:35;;;;;;;12.65;9.02;;;;;;;;;;5016812;28;20061;-58
2022/11/17 07:34:02;;;;;;;11.07;8.73;;;;;;;;;;5015751;28;20045;-57
2022/11/17 07:36:28;;;;;;;10.07;8.30;;;;;;;;;;5014739;28;20041;-57
2022/11/17 07:38:54;;;;;;;8.43;6.10;;;;;;;;;;5018296;28;20134;-58
2022/11/17 07:41:20;;;;;;;10.38;8.65;;;6.30;99.90;;;;;;5018152;28;20048;-58
2022/11/17 07:43:46;;;;;;;11.93;8.90;;;;;;;;;;5019151;28;20049;-58
2022/11/17 07:46:14;;;;;;;10.70;8.32;;;7.60;99.90;;;;;;5017284;28;20111;-57
2022/11/17 07:48:41;;;;;;;7.65;5.63;;;6.30;99.90;;;;;;5017949;28;20048;-57
2022/11/17 07:51:07;;;;;;;9.50;7.20;;;;;;;;;;5015579;28;20113;-57
2022/11/17 07:53:34;;;;;;;10.48;7.47;;;6.40;99.90;;;;;;5016490;28;20413;-57
2022/11/17 07:56:08;;;;;;;10.35;7.85;;;6.20;99.90;;;;;;5016757;28;20497;-57
2022/11/17 07:58:35;;;;;;;11.43;7.82;;;6.30;99.90;;;;;;5018372;28;20112;-57
2022/11/17 08:01:09;;;;;;;10.18;8.02;;;6.20;99.90;;;;;;5014667;28;20060;-57
2022/11/17 08:03:35;;;;;;;9.32;7.47;;;;;;;;;;5017977;28;20057;-57
2022/11/17 08:06:04;;;;;;;8.50;6.90;;;6.20;99.90;;;;;;5017051;28;20661;-58
2022/11/17 08:08:30;;;;;;;9.02;6.72;;;;;;;;;;5016120;28;20091;-58
2022/11/17 08:11:01;;;;;;;10.02;7.22;;;6.40;99.90;;;;;;5017037;28;20060;-57
2022/11/17 08:13:27;;;;;;;10.52;7.28;;;;;;;;;;5014744;28;20072;-57
2022/11/17 08:15:56;;;;;;;8.18;6.93;;;4.80;99.90;;;;;;5015721;28;20445;-58
2022/11/17 08:18:22;;;;;;;8.80;6.75;;;;;;;;;;5016937;28;20073;-57
2022/11/17 08:20:49;;;;;;;13.10;8.45;;;;;;;;;;5014962;28;20432;-58
2022/11/17 08:23:15;;;;;;;8.93;6.63;;;;;;;;;;5018206;28;20060;-57
2022/11/17 08:25:41;;;;;;;8.82;6.57;;;;;;;;;;5047318;28;20107;-58
2022/11/17 08:28:07;;;;;;;10.63;7.30;;;;;;;;;;5013088;28;20044;-57
2022/11/17 08:30:34;;;;;;;8.43;6.65;;;;;;;;;;5012738;28;20098;-57
2022/11/17 08:33:01;;;;;;;7.63;5.43;;;;;;;;;;5016213;28;20063;-57
2022/11/17 08:35:27;;;;;;;9.20;6.97;;;;;;;;;;5016597;28;20037;-57
2022/11/17 08:37:53;;;;;;;8.85;6.88;;;;;;;;;;5016325;28;20087;-57
2022/11/17 08:40:20;;;;;;;8.43;6.65;;;6.40;99.90;;;;;;5013952;28;20049;-57
2022/11/17 08:42:46;;;;;;;8.88;6.53;;;6.40;99.90;;;;;;5014731;28;20542;-56
2022/11/17 08:45:13;;;;;;;9.30;7.20;;;6.30;99.90;;;;;;5018411;28;20191;-56
2022/11/17 08:47:39;;;;;;;9.27;7.45;;;6.40;99.90;;;;;;5016183;28;20041;-57
2022/11/17 08:50:05;;;;;;;8.75;7.05;;;6.30;99.90;;;;;;5017015;28;20041;-57
2022/11/17 08:52:31;;;;;;;10.38;7.82;;;;;;;;;;5014646;28;20038;-57
2022/11/17 08:54:57;;;;;;;9.65;7.38;;;;;;;;;;5015340;28;20852;-57
2022/11/17 08:57:24;;;;;;;8.40;6.97;;;;;;;;;;5016474;28;20380;-57
2022/11/17 08:59:49;;;;;;;9.30;7.60;;;6.40;99.90;;;;;;5016568;28;20037;-57
2022/11/17 09:02:15;;;;;;;8.82;6.55;;;;;;;;;;5018073;28;20121;-56
2022/11/17 09:04:44;;;;;;;10.88;8.43;;;;;;;;;;5016081;28;20111;-56
2022/11/17 09:07:10;;;;;;;9.57;7.82;;;;;;;;;;5015320;28;20132;-57
2022/11/17 09:09:36;;;;;;;10.10;7.50;;;;;;;;;;5015878;28;20041;-56
2022/11/17 09:12:02;;;;;;;11.13;8.65;;;6.30;99.90;;;;;;5017753;28;20053;-56
2022/11/17 09:14:30;;;;;;;12.27;9.23;;;;;;;;;;5016078;28;20399;-56
2022/11/17 09:16:56;;;;;;;11.68;8.40;;;;;;;;;;5017308;28;20053;-56
2022/11/17 09:19:22;;;;;;;12.90;8.77;;;;;;;;;;5017674;28;20517;-56
2022/11/17 09:21:48;;;;;;;11.95;9.32;;;;;;;;;;5014707;28;21621;-56
2022/11/17 09:24:15;;;;;;;10.63;8.57;;;;;;;;;;5017416;28;20528;-56
2022/11/17 09:26:41;;;;;;;12.30;8.82;;;;;;;;;;5013173;28;20179;-56
2022/11/17 09:29:08;;;;;;;10.25;8.90;;;6.30;99.90;;;;;;5013419;28;20098;-56
2022/11/17 09:31:34;;;;;;;9.68;8.20;;;;;;;;;;5047154;28;20558;-57
2022/11/17 09:34:00;;;;;;;11.43;8.75;;;;;;;;;;5014527;28;20276;-57
2022/11/17 09:36:26;;;;;;;10.27;7.78;;;;;;;;;;5015476;28;20041;-56
2022/11/17 09:38:52;;;;;;;10.80;8.70;;;;;;;;;;5013137;28;20049;-57
2022/11/17 09:41:34;;;;;;;11.45;8.15;;;6.50;99.90;;;;;;5011940;28;20033;-56
2022/11/17 09:44:25;;;;;;;10.55;8.35;;;6.60;99.90;;;;;;5016880;28;20103;-56
2022/11/17 09:47:28;;;;;;;12.35;8.38;;;5.80;99.90;;;;;;5015681;28;20288;-57
2022/11/17 09:50:15;;;;;;;9.45;7.40;;;6.50;99.90;;;;;;5014394;28;20048;-57
2022/11/17 09:52:57;;;;;;;11.27;8.55;;;6.60;99.90;;;;;;5015091;28;20060;-56
2022/11/17 09:55:52;;;;;;;11.02;8.20;;;6.40;99.90;;;;;;5019433;28;20443;-57
2022/11/17 09:58:47;;;;;;;8.50;6.63;;;6.30;99.90;;;;;;5014835;28;20057;-56
2022/11/17 10:01:16;;;;;;;10.98;7.95;;;6.50;99.90;;;;;;5021906;28;20292;-57
2022/11/17 10:03:43;;;;;;;9.40;7.78;;;;;;;;;;5018390;28;20315;-56
2022/11/17 10:06:21;;;;;;;9.38;7.28;;;6.60;99.90;;;;;;5018373;28;20398;-57
2022/11/17 10:09:11;;;;;;;8.60;7.10;;;6.70;99.90;;;;;;5020505;28;20052;-57
2022/11/17 10:11:41;;;;;;;11.35;7.65;;;6.40;99.90;;;;;;5020215;28;20045;-56
2022/11/17 10:14:09;;;;;;;8.63;7.38;;;;;;;;;;5020236;28;20057;-56
2022/11/17 10:16:36;;;;;;;11.30;7.55;;;6.40;99.90;;;;;;5016784;28;20099;-56
2022/11/17 10:19:17;;;;;;;8.57;6.93;;;6.50;99.90;;;;;;5018161;28;20140;-56
2022/11/17 10:21:44;;;;;;;10.82;7.57;;;6.50;99.90;;;;;;5018131;28;20094;-55
2022/11/17 10:24:10;;;;;;;10.20;8.13;;;;;;;;;;5020481;28;20037;-55
2022/11/17 10:26:47;;;;;;;9.70;8.07;;;6.40;99.90;;;;;;5016594;28;20116;-55
2022/11/17 10:29:20;;;;;;;10.07;7.93;;;6.40;99.90;;;;;;5020171;28;20044;-55
2022/11/17 10:31:46;;;;;;;10.15;8.02;;;;;;;;;;5019867;28;20053;-55
2022/11/17 10:34:36;;;;;;;10.48;7.93;;;6.40;99.90;;;;;;5020890;28;20310;-55
2022/11/17 10:37:16;;;;;;;12.38;8.80;;;6.40;99.90;;;;;;5019331;28;20067;-56
2022/11/17 10:39:42;;;;;;;9.93;7.82;;;;;;;;;;5023575;28;20095;-56
2022/11/17 10:42:27;;;;;;;11.23;8.35;;;6.50;99.90;;;;;;5020872;28;20059;-56
2022/11/17 10:44:57;;;;;;;8.93;7.28;;;6.70;99.90;;;;;;5020849;28;20045;-56
2022/11/17 10:47:39;;;;;;;9.73;7.68;;;6.50;99.90;;;;;;5018029;28;20174;-56
2022/11/17 10:50:13;;;;;;;8.90;7.30;;;6.60;99.90;;;;;;5018433;28;20382;-56
2022/11/17 10:52:40;;;;;;;10.30;7.88;;;;;;;;;;5019667;28;20083;-56
2022/11/17 10:55:24;;;;;;;11.35;7.80;;;6.50;99.90;;;;;;5016136;28;20049;-56
2022/11/17 10:57:54;;;;;;;9.93;7.50;;;6.50;99.90;;;;;;5018692;28;20037;-56
2022/11/17 11:00:28;;;;;;;9.48;7.43;;;6.60;99.90;;;;;;5019303;28;20554;-56
2022/11/17 11:03:15;;;;;;;8.90;7.55;;;6.60;99.90;;;;;;5020683;28;20127;-56
2022/11/17 11:06:01;;;;;;;9.32;7.15;;;6.60;99.90;;;;;;5017371;28;20097;-55
2022/11/17 11:08:40;;;;;;;8.48;7.18;;;6.60;99.90;;;;;;5016023;28;20084;-56
2022/11/17 11:11:30;;;;;;;9.80;7.30;;;6.60;99.90;;;;;;5016546;28;20036;-56
2022/11/17 11:14:00;;;;;;;9.77;7.78;;;6.70;99.90;;;;;;5015316;28;20424;-55
2022/11/17 11:16:29;;;;;;;10.20;8.15;;;6.50;99.90;;;;;;5014842;28;20513;-56
2022/11/17 11:18:56;;;;;;;8.80;6.25;;;6.60;99.90;;;;;;5018125;28;20045;-56
2022/11/17 11:21:34;;;;;;;8.48;6.75;;;6.60;99.90;;;;;;5018130;28;21004;-56
2022/11/17 11:24:20;;;;;;;7.97;6.38;;;6.60;99.90;;;;;;5019526;28;20041;-55
2022/11/17 11:27:01;;;;;;;9.07;6.70;;;6.60;99.90;;;;;;5021089;28;20119;-56
2022/11/17 11:29:38;;;;;;;7.72;6.15;;;6.60;99.90;;;;;;5018917;28;20474;-56
2022/11/17 11:32:29;;;;;;;10.60;5.97;;;6.70;99.90;;;;;;5016627;28;20406;-56
2022/11/17 11:35:23;;;;;;;8.57;5.95;;;6.70;99.90;;;;;;5017185;28;20080;-55
2022/11/17 11:37:49;;;;;;;7.43;5.82;;;;;;;;;;5016982;28;20056;-56
2022/11/17 11:40:25;;;;;;;8.43;5.30;;;6.70;99.90;;;;;;5017240;28;20046;-56
2022/11/17 11:43:17;;;;;;;8.85;5.18;;;6.70;99.90;;;;;;5019417;28;20049;-55
2022/11/17 11:45:54;;;;;;;7.43;5.47;;;6.70;99.90;;;;;;5016385;28;20057;-55
2022/11/17 11:48:32;;;;;;;6.78;5.38;;;6.70;99.90;;;;;;5020494;28;20590;-56
2022/11/17 11:51:02;;;;;;;7.10;5.05;;;6.60;99.90;;;;;;5016146;28;20110;-56
2022/11/17 11:53:42;;;;;;;7.07;5.63;;;6.70;99.90;;;;;;5020110;28;20037;-55
2022/11/17 11:56:44;;;;;;;8.07;5.45;;;6.90;99.90;;;;;;5019901;28;20041;-56
2022/11/17 11:59:11;;;;;;;6.20;4.68;;;;;;;;;;4992052;28;20053;-56
2022/11/17 12:02:00;;;;;;;7.05;5.57;;;6.70;99.90;;;;;;5016541;28;20355;-55
2022/11/17 12:04:36;;;;;;;8.32;5.75;;;6.80;99.90;;;;;;5015732;28;20041;-55
2022/11/17 12:07:12;;;;;;;7.93;5.95;;;6.90;99.90;;;;;;5015333;28;20046;-55
2022/11/17 12:09:46;;;;;;;7.47;6.03;;;6.70;99.90;;;;;;5015319;28;20124;-56
2022/11/17 12:12:16;;;;;;;8.52;6.70;;;6.80;99.90;;;;;;5014947;28;20111;-55
2022/11/17 12:15:09;;;;;;;8.48;6.10;;;6.80;99.90;;;;;;5019033;28;20193;-55
2022/11/17 12:18:08;;;;;;;8.82;6.70;;;6.90;99.90;;;;;;5018259;28;20049;-53
2022/11/17 12:21:02;;;;;;;8.73;6.40;;;6.70;99.90;;;;;;5013746;28;20095;-53
2022/11/17 12:23:57;;;;;;;8.30;6.30;;;6.80;99.90;;;;;;5015982;28;20045;-55
2022/11/17 12:26:28;;;;;;;10.25;7.03;;;6.80;99.90;;;;;;5015275;28;20192;-54
2022/11/17 12:29:19;;;;;;;9.75;6.93;;;6.80;99.90;;;;;;5015957;28;20120;-54
2022/11/17 12:31:47;;;;;;;8.23;6.40;;;6.90;99.90;;;;;;5015699;28;20041;-55
2022/11/17 12:34:32;;;;;;;8.50;6.78;;;6.80;99.90;;;;;;5015459;28;20554;-54
2022/11/17 12:37:04;;;;;;;9.57;7.30;;;6.80;99.90;;;;;;5014416;28;20064;-54
2022/11/17 12:39:54;;;;;;;10.88;6.93;;;6.80;99.90;;;;;;5015871;28;20052;-52
2022/11/17 12:42:21;;;;;;;9.68;6.45;;;7.00;99.90;;;;;;5014012;28;20041;-50
2022/11/17 12:44:49;;;;;;;8.38;6.43;;;6.70;99.90;;;;;;5015660;28;20053;-52
2022/11/17 12:47:15;;;;;;;9.27;6.93;;;;;;;;;;5016225;28;20556;-53
2022/11/17 12:49:47;;;;;;;7.95;5.72;;;6.80;99.90;;;;;;5017941;28;20045;-52
2022/11/17 12:52:36;;;;;;;8.35;5.85;;;6.80;99.90;;;;;;5017511;28;20307;-52
2022/11/17 12:55:13;;;;;;;10.90;5.28;;;7.00;99.90;;;;;;5013290;28;20084;-54
2022/11/17 12:57:42;;;;;;;7.63;6.05;;;6.90;99.90;;;;;;5018033;28;20067;-54
2022/11/17 13:00:18;;;;;;;7.78;5.85;;;6.90;99.90;;;;;;5019438;28;21998;-54
2022/11/17 13:03:17;;;;;;;8.00;6.00;;;6.80;99.90;;;;;;5015236;28;20037;-54
2022/11/17 13:05:44;;;;;;;8.07;6.13;;;;;;;;;;5016665;28;20663;-55
2022/11/17 13:08:23;;;;;;;7.57;5.70;;;7.00;99.90;;;;;;5015227;28;20371;-54
2022/11/17 13:10:49;;;;;;;8.50;6.63;;;7.00;99.90;;;;;;5015298;28;20055;-55
2022/11/17 13:13:21;;;;;;;9.40;6.05;;;7.00;99.90;;;;;;5016502;28;20413;-52
2022/11/17 13:15:52;;;;;;;9.98;6.63;;;7.10;99.90;;;;;;5016330;28;20045;-54
2022/11/17 13:18:30;;;;;;;8.23;6.15;;;7.00;99.90;;;;;;5015873;28;20389;-55
2022/11/17 13:20:56;;;;;;;8.35;6.35;;;;;;;;;;5018129;28;20039;-55
2022/11/17 13:23:32;;;;;;;10.27;6.65;;;7.20;99.90;;;;;;5014171;28;20046;-54
2022/11/17 13:26:18;;;;;;;8.18;5.82;;;7.00;99.90;;;;;;5016287;28;20455;-54
2022/11/17 13:28:45;;;;;;;8.27;6.13;;;7.20;99.90;;;;;;5015133;28;20541;-54
2022/11/17 13:31:22;;;;;;;9.93;6.03;;;7.10;99.90;;;;;;5012843;28;20131;-55
2022/11/17 13:34:03;;;;;;;9.30;6.00;;;7.10;99.90;;;;;;5018566;28;20048;-55
2022/11/17 13:36:29;;;;;;;7.88;5.68;;;7.20;99.90;;;;;;5014960;28;20113;-55
2022/11/17 13:38:59;;;;;;;9.52;6.60;;;;;;;;;;5015849;28;20038;-54
2022/11/17 13:41:26;;;;;;;10.25;6.22;;;7.00;99.90;;;;;;5015981;28;20387;-53
2022/11/17 13:43:53;;;;;;;8.90;6.13;;;7.40;99.90;;;;;;5019390;28;20055;-55
2022/11/17 13:46:20;;;;;;;8.68;6.63;;;7.20;99.90;;;;;;5018102;28;20057;-54
2022/11/17 13:48:47;;;;;;;8.35;6.28;;;8.00;99.90;;;;;;5019251;28;20041;-54
2022/11/17 13:51:28;;;;;;;8.55;5.28;;;7.40;99.90;;;;;;5017695;28;20037;-55
2022/11/17 13:54:04;;;;;;;9.63;6.57;;;7.20;99.90;;;;;;5021537;28;20094;-55
2022/11/17 13:56:36;;;;;;;9.88;7.03;;;7.40;99.90;;;;;;5019062;28;20554;-54
2022/11/17 13:59:15;;;;;;;10.38;6.85;;;7.30;99.90;;;;;;5021786;28;20053;-53
2022/11/17 14:01:42;;;;;;;10.35;7.03;;;;;;;;;;5017101;28;20485;-54
2022/11/17 14:04:26;;;;;;;8.73;6.13;;;7.20;99.90;;;;;;5018036;28;20110;-53
2022/11/17 14:07:00;;;;;;;9.10;7.47;;;7.30;99.90;;;;;;5018330;28;20149;-54
2022/11/17 14:09:28;;;;;;;7.90;6.35;;;7.30;99.90;;;;;;5018240;28;20537;-55